createdAt,value
2023-03-15T00:01:01.659Z,949.41
2023-03-15T00:04:01.074Z,949.55
2023-03-15T00:07:00.496Z,949.7
2023-03-15T00:10:01.230Z,949.73
2023-03-15T00:13:00.605Z,949.85
2023-03-15T00:16:00.590Z,949.92
2023-03-15T00:19:00.691Z,949.94
2023-03-15T00:22:00.613Z,950.13
2023-03-15T00:25:00.181Z,950.13
2023-03-15T00:28:00.481Z,950.22
2023-03-15T00:31:00.764Z,950.22
2023-03-15T00:34:00.515Z,950.22
2023-03-15T00:37:00.442Z,950.38
2023-03-15T00:40:02.192Z,950.49
2023-03-15T00:43:00.465Z,950.65
2023-03-15T00:45:59.880Z,950.72
2023-03-15T00:49:00.499Z,950.67
2023-03-15T00:52:01.358Z,950.79
2023-03-15T00:55:01.132Z,950.86
2023-03-15T00:58:00.354Z,950.86
2023-03-15T01:01:00.582Z,951.0
2023-03-15T01:04:01.204Z,951.08
2023-03-15T01:07:01.016Z,951.09
2023-03-15T01:10:01.433Z,951.13
2023-03-15T01:13:00.894Z,951.23
2023-03-15T01:16:00.868Z,951.31
2023-03-15T01:19:00.344Z,951.3
2023-03-15T01:22:00.502Z,951.41
2023-03-15T01:24:59.763Z,951.46
2023-03-15T01:27:59.898Z,951.54
2023-03-15T01:31:00.856Z,951.57
2023-03-15T01:34:00.742Z,951.49
2023-03-15T01:37:00.227Z,951.59
2023-03-15T01:40:00.206Z,951.57
2023-03-15T01:43:00.345Z,951.63
2023-03-15T01:46:00.987Z,951.69
2023-03-15T01:49:00.169Z,951.74
2023-03-15T01:52:00.919Z,951.76
2023-03-15T01:55:00.246Z,951.82
2023-03-15T01:58:00.791Z,951.78
2023-03-15T02:01:01.566Z,951.85
2023-03-15T02:04:00.338Z,951.9
2023-03-15T02:07:00.959Z,951.84
2023-03-15T02:10:01.016Z,951.96
2023-03-15T02:13:00.836Z,951.95
2023-03-15T02:16:01.815Z,951.8
2023-03-15T02:19:00.103Z,951.89
2023-03-15T02:22:00.771Z,951.83
2023-03-15T02:25:00.426Z,951.84
2023-03-15T02:28:00.535Z,951.9
2023-03-15T02:31:01.029Z,952.12
2023-03-15T02:34:00.652Z,952.15
2023-03-15T02:37:01.799Z,952.2
2023-03-15T02:40:00.834Z,952.16
2023-03-15T02:43:00.680Z,952.24
2023-03-15T02:46:00.052Z,952.39
2023-03-15T02:49:00.740Z,952.45
2023-03-15T02:52:00.946Z,952.4
2023-03-15T02:54:59.857Z,952.54
2023-03-15T02:58:00.225Z,952.53
2023-03-15T03:01:01.273Z,952.6
2023-03-15T03:04:00.894Z,952.57
2023-03-15T03:07:00.283Z,952.62
2023-03-15T03:10:00.215Z,952.68
2023-03-15T03:13:01.082Z,952.73
2023-03-15T03:16:00.743Z,952.75
2023-03-15T03:19:00.703Z,952.76
2023-03-15T03:22:00.611Z,952.74
2023-03-15T03:25:00.624Z,952.8
2023-03-15T03:27:59.890Z,952.9
2023-03-15T03:31:00.651Z,953.0
2023-03-15T03:34:00.889Z,953.01
2023-03-15T03:37:01.096Z,953.14
2023-03-15T03:40:00.362Z,953.21
2023-03-15T03:43:00.737Z,953.31
2023-03-15T03:45:59.552Z,953.46
2023-03-15T03:49:01.003Z,953.45
2023-03-15T03:52:00.407Z,953.56
2023-03-15T03:55:01.099Z,953.63
2023-03-15T03:58:00.287Z,953.61
2023-03-15T04:01:00.815Z,953.69
2023-03-15T04:04:00.352Z,953.73
2023-03-15T04:07:00.411Z,953.89
2023-03-15T04:10:00.923Z,953.94
2023-03-15T04:13:00.821Z,953.94
2023-03-15T04:16:01.632Z,954.08
2023-03-15T04:19:01.618Z,954.13
2023-03-15T04:22:00.890Z,954.0
2023-03-15T04:25:00.077Z,954.08
2023-03-15T04:28:00.961Z,954.15
2023-03-15T04:31:01.707Z,954.03
2023-03-15T04:34:01.384Z,954.16
2023-03-15T04:37:00.353Z,954.25
2023-03-15T04:40:00.435Z,954.22
2023-03-15T04:43:00.659Z,954.32
2023-03-15T04:46:00.594Z,954.32
2023-03-15T04:49:00.157Z,954.43
2023-03-15T04:52:01.819Z,954.36
2023-03-15T04:55:00.029Z,954.42
2023-03-15T04:58:00.000Z,954.38
2023-03-15T05:01:01.686Z,954.4
2023-03-15T05:03:59.768Z,954.33
2023-03-15T05:07:00.868Z,954.36
2023-03-15T05:10:01.953Z,954.35
2023-03-15T05:12:59.648Z,954.39
2023-03-15T05:16:00.458Z,954.47
2023-03-15T05:18:59.424Z,954.49
2023-03-15T05:21:59.469Z,954.58
2023-03-15T05:24:59.602Z,954.53
2023-03-15T05:28:00.500Z,954.59
2023-03-15T05:31:01.446Z,954.64
2023-03-15T05:33:59.827Z,954.64
2023-03-15T05:37:01.372Z,954.61
2023-03-15T05:39:58.680Z,954.63
2023-03-15T05:43:02.010Z,954.68
2023-03-15T05:46:01.273Z,954.64
2023-03-15T05:49:01.721Z,954.68
2023-03-15T05:52:02.993Z,954.72
2023-03-15T05:55:01.583Z,954.75
2023-03-15T05:58:01.214Z,954.85
2023-03-15T06:01:05.603Z,954.71
2023-03-15T06:04:00.415Z,954.74
2023-03-15T06:07:02.572Z,954.75
2023-03-15T06:10:01.713Z,954.89
2023-03-15T06:13:02.693Z,954.84
2023-03-15T06:16:02.115Z,954.9
2023-03-15T06:19:01.476Z,954.95
2023-03-15T06:22:01.450Z,954.89
2023-03-15T06:25:02.704Z,954.89
2023-03-15T06:28:00.874Z,955.0
2023-03-15T06:31:05.146Z,955.08
2023-03-15T06:34:01.342Z,955.13
2023-03-15T06:37:01.314Z,955.11
2023-03-15T06:40:00.909Z,955.15
2023-03-15T06:43:00.542Z,955.11
2023-03-15T06:46:02.782Z,955.31
2023-03-15T06:49:01.001Z,955.23
2023-03-15T06:52:01.695Z,955.22
2023-03-15T06:55:00.891Z,955.26
2023-03-15T06:58:00.820Z,955.33
2023-03-15T07:01:02.933Z,955.3
2023-03-15T07:04:01.102Z,955.36
2023-03-15T07:07:02.221Z,955.36
2023-03-15T07:10:01.738Z,955.43
2023-03-15T07:13:01.462Z,955.49
2023-03-15T07:16:01.259Z,955.57
2023-03-15T07:19:00.983Z,955.54
2023-03-15T07:22:01.285Z,955.54
2023-03-15T07:25:01.316Z,955.45
2023-03-15T07:28:00.122Z,955.49
2023-03-15T07:31:00.737Z,955.55
2023-03-15T07:34:00.627Z,955.61
2023-03-15T07:37:01.361Z,955.55
2023-03-15T07:40:00.454Z,955.65
2023-03-15T07:43:01.123Z,955.6
2023-03-15T07:46:00.046Z,955.73
2023-03-15T07:49:01.346Z,955.73
2023-03-15T07:52:00.047Z,955.71
2023-03-15T07:55:00.117Z,955.66
2023-03-15T07:58:01.265Z,955.68
2023-03-15T08:01:00.939Z,955.66
2023-03-15T08:04:00.611Z,955.66
2023-03-15T08:07:00.741Z,955.71
2023-03-15T08:10:01.720Z,955.74
2023-03-15T08:13:02.082Z,955.78
2023-03-15T08:16:00.897Z,955.88
2023-03-15T08:19:00.685Z,955.84
2023-03-15T08:22:01.076Z,955.85
2023-03-15T08:25:01.604Z,955.88
2023-03-15T08:28:00.361Z,955.95
2023-03-15T08:31:02.390Z,955.81
2023-03-15T08:34:00.684Z,955.89
2023-03-15T08:37:01.354Z,955.89
2023-03-15T08:40:01.264Z,955.86
2023-03-15T08:43:00.261Z,955.96
2023-03-15T08:46:02.336Z,955.87
2023-03-15T08:49:00.442Z,955.94
2023-03-15T08:52:01.281Z,955.94
2023-03-15T08:54:59.940Z,956.04
2023-03-15T08:58:00.513Z,955.98
2023-03-15T09:01:00.722Z,956.04
2023-03-15T09:04:02.064Z,956.05
2023-03-15T09:07:02.981Z,956.09
2023-03-15T09:10:04.913Z,956.05
2023-03-15T09:13:00.471Z,956.12
2023-03-15T09:16:01.439Z,956.19
2023-03-15T09:19:00.894Z,956.2
2023-03-15T09:22:15.933Z,956.21
2023-03-15T09:25:00.797Z,956.34
2023-03-15T09:28:01.433Z,956.36
2023-03-15T09:31:01.065Z,956.32
2023-03-15T09:34:00.966Z,956.4
2023-03-15T09:37:00.771Z,956.29
2023-03-15T09:40:02.107Z,956.35
2023-03-15T09:43:00.525Z,956.35
2023-03-15T09:46:01.191Z,956.32
2023-03-15T09:49:00.622Z,956.38
2023-03-15T09:52:00.759Z,956.37
2023-03-15T09:55:01.714Z,956.36
2023-03-15T09:58:00.784Z,956.34
2023-03-15T10:01:02.453Z,956.37
2023-03-15T10:04:00.610Z,956.42
2023-03-15T10:07:00.859Z,956.43
2023-03-15T10:10:02.128Z,956.4
2023-03-15T10:13:01.534Z,956.4
2023-03-15T10:16:02.297Z,956.45
2023-03-15T10:19:01.092Z,956.49
2023-03-15T10:22:00.508Z,956.46
2023-03-15T10:25:00.598Z,956.39
2023-03-15T10:28:00.814Z,956.41
2023-03-15T10:31:00.811Z,956.31
2023-03-15T10:34:00.636Z,956.44
2023-03-15T10:37:00.508Z,956.44
2023-03-15T10:40:00.881Z,956.52
2023-03-15T10:43:00.952Z,956.32
2023-03-15T10:46:01.175Z,956.34
2023-03-15T10:49:00.720Z,956.37
2023-03-15T10:52:01.380Z,956.35
2023-03-15T10:55:04.744Z,956.39
2023-03-15T10:58:01.233Z,956.35
2023-03-15T11:01:00.459Z,956.3
2023-03-15T11:04:18.985Z,956.27
2023-03-15T11:07:01.197Z,956.27
2023-03-15T11:10:00.803Z,956.26
2023-03-15T11:13:00.926Z,956.24
2023-03-15T11:16:01.755Z,956.22
2023-03-15T11:19:00.821Z,956.11
2023-03-15T11:22:00.642Z,956.24
2023-03-15T11:25:01.580Z,956.21
2023-03-15T11:28:00.913Z,956.06
2023-03-15T11:31:00.212Z,956.12
2023-03-15T11:34:02.123Z,956.09
2023-03-15T11:37:08.084Z,956.1
2023-03-15T11:40:11.180Z,955.99
2023-03-15T11:43:02.016Z,955.95
2023-03-15T11:46:01.329Z,955.89
2023-03-15T11:49:00.868Z,955.89
2023-03-15T11:52:01.428Z,955.97
2023-03-15T11:55:00.833Z,955.94
2023-03-15T11:58:01.326Z,955.94
2023-03-15T12:01:01.260Z,955.99
2023-03-15T12:04:01.294Z,955.93
2023-03-15T12:07:01.390Z,955.99
2023-03-15T12:10:01.868Z,956.03
2023-03-15T12:13:01.046Z,956.06
2023-03-15T12:16:00.433Z,956.08
2023-03-15T12:19:00.173Z,956.18
2023-03-15T12:21:59.558Z,956.26
2023-03-15T12:24:57.711Z,956.34
2023-03-15T12:28:01.269Z,956.32
2023-03-15T12:31:01.042Z,956.35
2023-03-15T12:34:01.509Z,956.36
2023-03-15T12:37:01.223Z,956.4
2023-03-15T12:40:01.607Z,956.38
2023-03-15T12:43:01.284Z,956.41
2023-03-15T12:46:01.834Z,956.4
2023-03-15T12:49:03.115Z,956.43
2023-03-15T12:52:01.244Z,956.49
2023-03-15T12:55:01.528Z,956.56
2023-03-15T12:58:00.488Z,956.53
2023-03-15T13:01:01.950Z,956.42
2023-03-15T13:04:01.536Z,956.49
2023-03-15T13:07:01.065Z,956.41
2023-03-15T13:10:00.547Z,956.58
2023-03-15T13:13:01.035Z,956.57
2023-03-15T13:16:00.924Z,956.62
2023-03-15T13:19:01.005Z,956.49
2023-03-15T13:22:01.032Z,956.51
2023-03-15T13:25:00.299Z,956.66
2023-03-15T13:28:00.889Z,956.72
2023-03-15T13:31:00.920Z,956.66
2023-03-15T13:34:00.856Z,956.64
2023-03-15T13:37:01.205Z,956.76
2023-03-15T13:40:00.598Z,956.8
2023-03-15T13:43:00.623Z,956.91
2023-03-15T13:46:01.267Z,956.91
2023-03-15T13:49:00.125Z,956.82
2023-03-15T13:52:04.418Z,956.89
2023-03-15T13:55:00.812Z,956.95
2023-03-15T13:58:03.692Z,956.96
2023-03-15T14:01:02.928Z,956.89
2023-03-15T14:03:59.938Z,956.87
2023-03-15T14:07:00.048Z,956.82
2023-03-15T14:10:01.805Z,956.8
2023-03-15T14:13:02.489Z,956.8
2023-03-15T14:16:00.405Z,956.79
2023-03-15T14:19:01.412Z,956.87
2023-03-15T14:22:01.122Z,956.75
2023-03-15T14:25:01.265Z,956.71
2023-03-15T14:28:02.451Z,956.66
2023-03-15T14:31:03.502Z,956.76
2023-03-15T14:34:01.132Z,956.78
2023-03-15T14:37:04.814Z,956.72
2023-03-15T14:40:02.575Z,956.67
2023-03-15T14:43:01.311Z,956.58
2023-03-15T14:46:00.940Z,956.54
2023-03-15T14:49:01.563Z,956.55
2023-03-15T14:52:01.556Z,956.64
2023-03-15T14:55:01.893Z,956.57
2023-03-15T14:58:00.635Z,956.55
2023-03-15T15:01:02.835Z,956.59
2023-03-15T15:04:02.540Z,956.48
2023-03-15T15:07:03.612Z,956.5
2023-03-15T15:10:01.311Z,956.56
2023-03-15T15:13:06.822Z,956.51
2023-03-15T15:16:02.278Z,956.46
2023-03-15T15:19:00.864Z,956.45
2023-03-15T15:22:02.144Z,956.54
2023-03-15T15:25:03.175Z,956.48
2023-03-15T15:28:02.183Z,956.53
2023-03-15T15:31:01.703Z,956.59
2023-03-15T15:34:03.091Z,956.49
2023-03-15T15:37:00.623Z,956.52
2023-03-15T15:40:01.042Z,956.58
2023-03-15T15:43:00.797Z,956.64
2023-03-15T15:46:02.490Z,956.68
2023-03-15T15:49:01.691Z,956.84
2023-03-15T15:52:01.998Z,956.84
2023-03-15T15:55:00.910Z,956.9
2023-03-15T15:58:01.822Z,956.87
2023-03-15T16:01:02.037Z,956.93
2023-03-15T16:04:01.470Z,956.96
2023-03-15T16:07:00.458Z,956.97
2023-03-15T16:10:01.554Z,957.01
2023-03-15T16:13:03.348Z,957.16
2023-03-15T16:16:01.160Z,957.15
2023-03-15T16:19:01.554Z,957.15
2023-03-15T16:22:02.324Z,957.07
2023-03-15T16:25:02.340Z,957.15
2023-03-15T16:28:01.970Z,957.24
2023-03-15T16:31:02.885Z,957.19
2023-03-15T16:34:01.565Z,957.35
2023-03-15T16:37:02.040Z,957.43
2023-03-15T16:40:01.559Z,957.4
2023-03-15T16:43:01.289Z,957.52
2023-03-15T16:46:03.944Z,957.53
2023-03-15T16:49:06.523Z,957.59
2023-03-15T16:52:02.604Z,957.62
2023-03-15T16:55:01.590Z,957.61
2023-03-15T16:58:02.365Z,957.68
2023-03-15T17:01:03.991Z,957.74
2023-03-15T17:04:03.289Z,957.69
2023-03-15T17:07:01.090Z,957.8
2023-03-15T17:10:02.836Z,957.79
2023-03-15T17:13:02.116Z,957.75
2023-03-15T17:16:02.634Z,957.91
2023-03-15T17:19:01.293Z,957.89
2023-03-15T17:22:02.570Z,957.9
2023-03-15T17:25:01.208Z,957.98
2023-03-15T17:28:01.214Z,957.97
2023-03-15T17:31:23.881Z,958.0
2023-03-15T17:34:03.023Z,958.01
2023-03-15T17:37:02.947Z,958.07
2023-03-15T17:40:00.952Z,958.05
2023-03-15T17:43:07.736Z,958.13
2023-03-15T17:46:03.474Z,957.99
2023-03-15T17:49:03.124Z,958.03
2023-03-15T17:52:01.627Z,958.03
2023-03-15T17:55:00.554Z,958.09
2023-03-15T17:58:03.030Z,958.19
2023-03-15T18:01:03.412Z,958.28
2023-03-15T18:03:58.896Z,958.29
2023-03-15T18:06:57.699Z,958.22
2023-03-15T18:09:58.152Z,958.33
2023-03-15T18:12:57.343Z,958.35
2023-03-15T18:15:57.627Z,958.33
2023-03-15T18:18:57.422Z,958.48
2023-03-15T18:21:57.742Z,958.44
2023-03-15T18:24:57.227Z,958.45
2023-03-15T18:27:57.603Z,958.43
2023-03-15T18:30:58.506Z,958.47
2023-03-15T18:33:57.317Z,958.59
2023-03-15T18:36:57.414Z,958.65
2023-03-15T18:39:58.340Z,958.64
2023-03-15T18:42:57.369Z,958.68
2023-03-15T18:45:57.214Z,958.59
2023-03-15T18:48:59.303Z,958.55
2023-03-15T18:51:57.236Z,958.59
2023-03-15T18:54:58.138Z,958.6
2023-03-15T18:57:57.747Z,958.54
2023-03-15T19:01:26.483Z,958.53
2023-03-15T19:03:57.286Z,958.61
2023-03-15T19:06:57.851Z,958.58
2023-03-15T19:10:02.839Z,958.69
2023-03-15T19:12:57.419Z,958.72
2023-03-15T19:15:56.933Z,958.63
2023-03-15T19:18:58.101Z,958.65
2023-03-15T19:21:57.738Z,958.77
2023-03-15T19:24:58.028Z,958.67
2023-03-15T19:27:57.843Z,958.75
2023-03-15T19:30:58.093Z,958.78
2023-03-15T19:33:57.422Z,958.74
2023-03-15T19:36:57.031Z,958.71
2023-03-15T19:39:57.399Z,958.72
2023-03-15T19:42:57.835Z,958.8
2023-03-15T19:45:57.372Z,958.85
2023-03-15T19:48:57.742Z,958.83
2023-03-15T19:51:56.923Z,958.84
2023-03-15T19:54:57.342Z,958.87
2023-03-15T19:57:57.869Z,958.76
2023-03-15T20:00:58.284Z,958.89
2023-03-15T20:03:57.218Z,958.86
2023-03-15T20:06:57.673Z,958.94
2023-03-15T20:09:57.659Z,958.94
2023-03-15T20:12:57.179Z,959.0
2023-03-15T20:15:57.761Z,958.99
2023-03-15T20:18:57.898Z,959.08
2023-03-15T20:21:57.564Z,959.14
2023-03-15T20:24:57.298Z,959.17
2023-03-15T20:28:03.002Z,959.15
2023-03-15T20:30:58.099Z,959.15
2023-03-15T20:33:56.895Z,959.17
2023-03-15T20:36:57.441Z,959.2
2023-03-15T20:39:57.784Z,959.2
2023-03-15T20:42:57.093Z,959.16
2023-03-15T20:45:57.850Z,959.16
2023-03-15T20:48:58.101Z,959.12
2023-03-15T20:51:57.568Z,959.05
2023-03-15T20:54:57.893Z,959.09
2023-03-15T20:57:58.141Z,959.15
2023-03-15T21:00:58.325Z,959.17
2023-03-15T21:03:57.725Z,959.23
2023-03-15T21:06:57.332Z,959.22
2023-03-15T21:09:57.752Z,959.31
2023-03-15T21:12:57.374Z,959.23
2023-03-15T21:15:58.199Z,959.28
2023-03-15T21:18:57.667Z,959.38
2023-03-15T21:21:57.156Z,959.4
2023-03-15T21:24:57.084Z,959.3
2023-03-15T21:27:57.458Z,959.23
2023-03-15T21:30:58.229Z,959.29
2023-03-15T21:33:57.870Z,959.27
2023-03-15T21:36:57.088Z,959.33
2023-03-15T21:39:57.413Z,959.34
2023-03-15T21:42:57.209Z,959.36
2023-03-15T21:45:58.274Z,959.34
2023-03-15T21:48:57.440Z,959.38
2023-03-15T21:51:57.418Z,959.31
2023-03-15T21:54:57.668Z,959.26
2023-03-15T21:57:57.195Z,959.3
2023-03-15T22:00:58.256Z,959.28
2023-03-15T22:03:57.554Z,959.28
2023-03-15T22:06:56.941Z,959.31
2023-03-15T22:09:58.362Z,959.31
2023-03-15T22:12:57.391Z,959.26
2023-03-15T22:15:57.574Z,959.37
2023-03-15T22:18:57.237Z,959.4
2023-03-15T22:21:57.360Z,959.47
2023-03-15T22:24:57.522Z,959.37
2023-03-15T22:27:57.910Z,959.34
2023-03-15T22:30:57.645Z,959.46
2023-03-15T22:33:57.145Z,959.37
2023-03-15T22:36:57.792Z,959.34
2023-03-15T22:39:57.566Z,959.47
2023-03-15T22:42:57.892Z,959.47
2023-03-15T22:45:57.841Z,959.41
2023-03-15T22:48:57.658Z,959.3
2023-03-15T22:51:57.084Z,959.36
2023-03-15T22:54:56.900Z,959.44
2023-03-15T22:57:57.101Z,959.47
2023-03-15T23:00:57.751Z,959.38
2023-03-15T23:03:57.312Z,959.44
2023-03-15T23:06:57.526Z,959.53
2023-03-15T23:09:56.888Z,959.48
2023-03-15T23:12:57.402Z,959.42
2023-03-15T23:15:57.751Z,959.41
2023-03-15T23:18:58.118Z,959.37
2023-03-15T23:21:57.522Z,959.38
2023-03-15T23:24:57.682Z,959.37
2023-03-15T23:27:57.124Z,959.34
2023-03-15T23:30:57.640Z,959.31
2023-03-15T23:33:57.570Z,959.3
2023-03-15T23:36:57.798Z,959.17
2023-03-15T23:39:57.404Z,959.28
2023-03-15T23:42:57.201Z,959.26
2023-03-15T23:45:57.487Z,959.21
2023-03-15T23:48:57.448Z,959.28
2023-03-15T23:51:57.752Z,959.33
2023-03-15T23:54:57.233Z,959.16
2023-03-15T23:57:57.470Z,959.25
